Time;durP1;ratioP1;P1;durP2;ratioP2;P2;SDS_P1;SDS_P2;PMS_P1;PMS_P2;Temp;Humidity;BMP_temperature;BMP_pressure;BME280_temperature;BME280_humidity;BME280_pressure;Samples;Min_cycle;Max_cycle;Signal;HPM_P1;HPM_P2
2023/03/26 00:01:35;;;;;;;15.35;3.38;;;9.80;99.90;;;;;;5005369;28;20022;-72
2023/03/26 00:04:02;;;;;;;17.70;3.67;;;9.90;99.90;;;;;;4997454;28;20076;-72
2023/03/26 00:06:33;;;;;;;20.83;4.18;;;9.80;99.90;;;;;;4998451;28;20022;-74
2023/03/26 00:08:59;;;;;;;17.42;4.22;;;9.80;99.90;;;;;;4998346;28;20026;-75
2023/03/26 00:11:27;;;;;;;15.95;3.80;;;9.90;99.90;;;;;;4996018;28;20023;-72
2023/03/26 00:13:55;;;;;;;15.85;3.30;;;9.80;99.90;;;;;;4992424;28;20026;-73
2023/03/26 00:16:24;;;;;;;15.02;3.97;;;9.80;99.90;;;;;;5003071;28;20076;-73
2023/03/26 00:18:50;;;;;;;25.55;5.57;;;9.90;99.90;;;;;;4995742;28;20026;-72
2023/03/26 00:21:19;;;;;;;13.88;3.25;;;9.90;99.90;;;;;;4997629;28;20402;-72
2023/03/26 00:23:48;;;;;;;17.00;3.33;;;10.00;99.90;;;;;;4995487;28;20551;-73
2023/03/26 00:26:15;;;;;;;24.30;5.93;;;10.00;99.90;;;;;;4994560;28;20053;-72
2023/03/26 00:28:41;;;;;;;25.13;4.53;;;10.00;99.90;;;;;;4994084;28;20396;-73
2023/03/26 00:31:10;;;;;;;17.92;3.60;;;10.00;99.90;;;;;;4994164;28;20033;-73
2023/03/26 00:33:39;;;;;;;26.40;5.18;;;9.90;99.90;;;;;;4991014;28;20026;-73
2023/03/26 00:36:16;;;;;;;25.83;5.40;;;10.00;99.90;;;;;;5003442;28;20029;-73
2023/03/26 00:38:42;;;;;;;26.40;5.47;;;9.90;99.90;;;;;;5005974;28;20040;-72
2023/03/26 00:41:21;;;;;;;29.33;5.45;;;10.00;99.90;;;;;;4993749;28;20478;-71
2023/03/26 00:43:48;;;;;;;24.20;5.90;;;9.90;99.90;;;;;;4973691;28;20034;-73
2023/03/26 00:46:13;;;;;;;30.90;6.60;;;9.90;99.90;;;;;;4991718;28;20029;-72
2023/03/26 00:48:41;;;;;;;26.83;5.78;;;10.00;99.90;;;;;;4992364;28;20401;-72
2023/03/26 00:51:08;;;;;;;32.83;6.05;;;10.00;99.90;;;;;;4993129;28;20021;-73
2023/03/26 00:53:37;;;;;;;31.33;5.22;;;10.00;99.90;;;;;;4993702;28;20104;-72
2023/03/26 00:56:04;;;;;;;28.45;6.32;;;10.00;99.90;;;;;;4992931;28;20812;-73
2023/03/26 00:58:30;;;;;;;26.02;6.93;;;10.00;99.90;;;;;;4991718;28;20030;-72
2023/03/26 01:00:58;;;;;;;28.05;5.82;;;10.00;99.90;;;;;;4991280;28;20023;-72
2023/03/26 01:03:28;;;;;;;39.25;6.85;;;10.00;99.90;;;;;;4991194;28;20034;-73
2023/03/26 01:06:34;;;;;;;32.50;7.32;;;10.10;99.90;;;;;;4989131;28;20033;-72
2023/03/26 01:09:10;;;;;;;31.20;7.32;;;10.00;99.90;;;;;;4997427;28;20501;-73
2023/03/26 01:11:36;;;;;;;30.83;7.03;;;10.00;99.90;;;;;;4990652;28;20023;-73
2023/03/26 01:14:10;;;;;;;29.88;6.45;;;10.00;99.90;;;;;;4990158;28;20086;-73
2023/03/26 01:16:40;;;;;;;33.67;8.05;;;10.00;99.90;;;;;;4990624;28;20401;-73
2023/03/26 01:19:12;;;;;;;;;;;10.10;99.90;;;;;;4991638;28;20045;-73
2023/03/26 01:21:38;;;;;;;44.53;8.77;;;10.10;99.90;;;;;;4987748;28;20373;-73
2023/03/26 01:24:09;;;;;;;35.03;8.00;;;10.10;99.90;;;;;;4998469;28;20038;-73
2023/03/26 01:27:01;;;;;;;31.52;7.15;;;10.20;99.90;;;;;;4990368;28;20026;-73
2023/03/26 01:29:32;;;;;;;45.10;8.68;;;10.10;99.90;;;;;;4987176;28;20023;-72
2023/03/26 01:32:16;;;;;;;32.13;8.38;;;10.20;99.90;;;;;;4990846;28;20114;-73
2023/03/26 01:35:11;;;;;;;30.85;6.57;;;10.20;99.90;;;;;;4991136;28;20061;-73
2023/03/26 01:38:17;;;;;;;37.00;7.85;;;10.20;99.90;;;;;;4990181;28;20488;-73
2023/03/26 01:40:57;;;;;;;32.10;8.10;;;10.30;99.90;;;;;;4989395;28;20469;-73
2023/03/26 01:43:43;;;;;;;36.38;7.47;;;10.30;99.90;;;;;;4980287;28;20072;-73
2023/03/26 01:46:11;;;;;;;50.17;8.50;;;10.30;99.90;;;;;;4997999;28;20511;-73
2023/03/26 01:48:40;;;;;;;36.13;8.35;;;10.40;99.90;;;;;;5003405;28;20049;-73
2023/03/26 01:51:07;;;;;;;38.05;10.70;;;10.40;99.90;;;;;;4994841;28;20049;-73
2023/03/26 01:53:36;;;;;;;44.78;9.68;;;10.40;99.90;;;;;;4993912;28;20113;-73
2023/03/26 01:56:05;;;;;;;38.30;9.47;;;10.40;99.90;;;;;;4993993;28;20030;-72
2023/03/26 01:58:57;;;;;;;40.55;8.50;;;10.30;99.90;;;;;;4992600;28;20270;-73
2023/03/26 02:01:47;;;;;;;49.30;10.68;;;10.30;99.90;;;;;;4999592;28;20057;-73
2023/03/26 02:04:23;;;;;;;36.88;9.00;;;10.30;99.90;;;;;;4994292;28;20085;-73
2023/03/26 02:07:04;;;;;;;32.10;8.77;;;10.40;99.90;;;;;;4983709;28;20018;-73
2023/03/26 02:09:38;;;;;;;35.72;9.85;;;10.40;99.90;;;;;;4994536;28;20039;-74
2023/03/26 02:12:05;;;;;;;51.15;10.07;;;10.40;99.90;;;;;;4991730;28;20104;-73
2023/03/26 02:14:31;;;;;;;35.20;8.73;;;10.40;99.90;;;;;;4991247;28;20038;-74
2023/03/26 02:16:59;;;;;;;45.05;7.90;;;10.50;99.90;;;;;;4989991;28;20050;-73
2023/03/26 02:19:25;;;;;;;46.42;10.25;;;10.50;99.90;;;;;;4989853;28;20049;-72
2023/03/26 02:21:51;;;;;;;40.88;9.48;;;10.40;99.90;;;;;;5005263;28;20389;-73
2023/03/26 02:24:19;;;;;;;32.97;8.30;;;10.40;99.90;;;;;;4985386;28;20081;-72
2023/03/26 02:26:44;;;;;;;32.70;8.00;;;10.40;99.90;;;;;;4981407;28;20028;-73
2023/03/26 02:29:12;;;;;;;34.78;6.50;;;10.40;99.90;;;;;;4988334;28;20062;-72
2023/03/26 02:31:38;;;;;;;57.10;10.35;;;10.40;99.90;;;;;;4985162;28;20497;-73
2023/03/26 02:34:04;;;;;;;39.85;8.15;;;10.30;99.90;;;;;;4988178;28;20045;-73
2023/03/26 02:36:30;;;;;;;40.10;9.35;;;10.30;99.90;;;;;;4990035;28;20030;-73
2023/03/26 02:38:56;;;;;;;36.75;8.63;;;10.30;99.90;;;;;;4989862;28;20033;-72
2023/03/26 02:41:22;;;;;;;48.30;9.93;;;10.30;99.90;;;;;;4988921;28;20425;-72
2023/03/26 02:43:48;;;;;;;52.15;9.98;;;10.30;99.90;;;;;;4989492;28;20038;-74
2023/03/26 02:46:14;;;;;;;46.72;9.55;;;10.40;99.90;;;;;;5000676;28;20038;-74
2023/03/26 02:48:40;;;;;;;45.67;9.43;;;10.40;99.90;;;;;;5002558;28;20029;-74
2023/03/26 02:51:06;;;;;;;39.75;9.30;;;10.40;99.90;;;;;;4990696;28;20022;-73
2023/03/26 02:53:32;;;;;;;42.15;9.20;;;10.40;99.90;;;;;;4991804;28;20034;-74
2023/03/26 02:55:59;;;;;;;38.92;9.57;;;10.40;99.90;;;;;;5006131;28;20034;-73
2023/03/26 02:58:25;;;;;;;37.45;9.57;;;10.40;99.90;;;;;;5003695;28;20029;-72
2023/03/26 03:00:54;;;;;;;34.45;8.40;;;10.40;99.90;;;;;;4992731;28;20038;-73
2023/03/26 03:03:25;;;;;;;33.27;7.77;;;10.40;99.90;;;;;;5003181;28;20015;-72
2023/03/26 03:05:54;;;;;;;46.97;9.82;;;10.40;99.90;;;;;;4998131;28;20269;-73
2023/03/26 03:08:22;;;;;;;50.50;10.07;;;10.40;99.90;;;;;;4982576;28;20030;-73
2023/03/26 03:10:59;;;;;;;44.47;11.73;;;10.40;99.90;;;;;;4990245;28;20034;-72
2023/03/26 03:13:25;;;;;;;43.15;10.20;;;10.40;99.90;;;;;;5007805;28;20100;-73
2023/03/26 03:15:51;;;;;;;38.83;9.27;;;10.40;99.90;;;;;;5002662;28;20448;-71
2023/03/26 03:18:17;;;;;;;33.47;9.98;;;10.40;99.90;;;;;;4996699;28;20413;-72
2023/03/26 03:20:43;;;;;;;40.30;10.10;;;10.40;99.90;;;;;;4992461;28;20023;-73
2023/03/26 03:23:09;;;;;;;40.58;9.88;;;10.50;99.90;;;;;;4992605;28;20037;-73
2023/03/26 03:25:35;;;;;;;44.10;11.95;;;10.50;99.90;;;;;;4993161;28;20026;-73
2023/03/26 03:28:01;;;;;;;42.92;11.20;;;10.50;99.90;;;;;;4987927;28;20057;-72
2023/03/26 03:30:27;;;;;;;37.60;10.90;;;10.60;99.90;;;;;;4996166;28;20065;-72
2023/03/26 03:32:53;;;;;;;37.80;10.55;;;10.60;99.90;;;;;;4999747;28;20660;-72
2023/03/26 03:35:18;;;;;;;43.63;10.57;;;10.60;99.90;;;;;;4997151;28;20038;-73
2023/03/26 03:37:44;;;;;;;43.30;10.98;;;10.60;99.90;;;;;;5000872;28;20447;-72
2023/03/26 03:40:10;;;;;;;53.78;12.85;;;10.60;99.90;;;;;;5003262;28;20022;-73
2023/03/26 03:42:36;;;;;;;49.38;13.32;;;10.60;99.90;;;;;;4986977;28;20481;-72
2023/03/26 03:45:05;;;;;;;42.13;11.73;;;10.70;99.90;;;;;;4999448;28;20081;-73
2023/03/26 03:47:31;;;;;;;45.65;12.55;;;10.60;99.90;;;;;;4990741;28;20018;-73
2023/03/26 03:49:58;;;;;;;43.13;11.38;;;10.60;99.90;;;;;;5002472;28;20022;-73
2023/03/26 03:52:25;;;;;;;49.90;12.55;;;10.60;99.90;;;;;;4994173;28;20647;-73
2023/03/26 03:54:53;;;;;;;40.22;10.40;;;10.60;99.90;;;;;;4994791;28;20034;-72
2023/03/26 03:57:20;;;;;;;34.67;9.68;;;10.50;99.90;;;;;;4992057;28;20018;-72
2023/03/26 03:59:47;;;;;;;35.08;9.07;;;10.60;99.90;;;;;;4994486;28;20022;-73
2023/03/26 04:02:12;;;;;;;44.50;12.05;;;10.60;99.90;;;;;;4997680;28;20025;-72
2023/03/26 04:04:38;;;;;;;38.38;10.02;;;10.50;99.90;;;;;;5000944;28;20031;-73
2023/03/26 04:07:05;;;;;;;35.97;8.07;;;10.60;99.90;;;;;;4989281;28;20019;-72
2023/03/26 04:09:31;;;;;;;36.20;8.43;;;10.60;99.90;;;;;;5003547;28;20022;-73
2023/03/26 04:11:56;;;;;;;36.08;8.38;;;10.60;99.90;;;;;;4990857;28;20019;-72
2023/03/26 04:14:22;;;;;;;38.75;9.30;;;10.60;99.90;;;;;;4994386;28;20046;-73
2023/03/26 04:16:48;;;;;;;30.05;8.35;;;10.60;99.90;;;;;;4999579;28;20049;-72
2023/03/26 04:19:14;;;;;;;37.53;9.07;;;10.70;99.90;;;;;;4994042;28;20544;-73
2023/03/26 04:21:41;;;;;;;38.28;9.32;;;10.70;99.90;;;;;;4998419;28;20018;-72
2023/03/26 04:24:08;;;;;;;37.25;8.45;;;10.70;99.90;;;;;;5006409;28;20054;-73
2023/03/26 04:26:34;;;;;;;29.33;7.43;;;10.70;99.90;;;;;;4996846;28;20015;-73
2023/03/26 04:29:05;;;;;;;39.85;9.32;;;10.70;99.90;;;;;;4997282;28;20100;-73
2023/03/26 04:31:31;;;;;;;37.22;8.02;;;10.70;99.90;;;;;;5002456;28;20552;-73
2023/03/26 04:34:06;;;;;;;40.25;9.18;;;10.70;99.90;;;;;;5005228;28;20025;-73
2023/03/26 04:36:34;;;;;;;52.28;9.38;;;10.70;99.90;;;;;;4996977;28;20405;-73
2023/03/26 04:39:03;;;;;;;35.58;7.10;;;10.70;99.90;;;;;;4989891;28;20082;-73
2023/03/26 04:41:31;;;;;;;34.17;6.67;;;10.70;99.80;;;;;;5004630;28;20504;-73
2023/03/26 04:44:00;;;;;;;34.22;7.55;;;10.70;99.80;;;;;;4992103;28;20018;-73
2023/03/26 04:46:26;;;;;;;32.67;7.10;;;10.70;99.80;;;;;;5007677;28;20037;-72
2023/03/26 04:48:53;;;;;;;30.90;8.02;;;10.70;99.80;;;;;;4994706;28;20026;-73
2023/03/26 04:51:23;;;;;;;36.40;6.90;;;10.80;99.70;;;;;;4996047;28;20113;-73
2023/03/26 04:53:56;;;;;;;43.05;8.65;;;10.80;99.60;;;;;;4992845;28;20501;-72
2023/03/26 04:56:42;;;;;;;37.58;7.65;;;10.90;99.60;;;;;;5006587;28;20025;-71
2023/03/26 04:59:13;;;;;;;29.42;7.97;;;10.90;99.40;;;;;;4994382;28;20022;-72
2023/03/26 05:01:44;;;;;;;31.95;7.40;;;10.90;99.30;;;;;;5000323;28;20030;-72
2023/03/26 05:04:12;;;;;;;33.58;7.07;;;10.90;99.30;;;;;;5005178;28;20113;-72
2023/03/26 05:06:39;;;;;;;33.90;7.28;;;10.90;99.30;;;;;;4999924;28;20026;-72
2023/03/26 05:09:05;;;;;;;34.28;6.10;;;10.90;99.40;;;;;;4997710;28;20030;-72
2023/03/26 05:11:30;;;;;;;33.10;7.40;;;10.90;99.40;;;;;;4998617;28;20042;-72
2023/03/26 05:13:56;;;;;;;35.00;7.25;;;11.00;99.40;;;;;;4998571;28;20801;-72
2023/03/26 05:16:23;;;;;;;34.05;5.75;;;11.00;99.30;;;;;;5002545;28;20447;-72
2023/03/26 05:18:50;;;;;;;35.60;7.25;;;11.00;99.20;;;;;;4999616;28;20105;-71
2023/03/26 05:21:16;;;;;;;34.97;7.82;;;11.00;99.20;;;;;;4993842;28;20026;-72
2023/03/26 05:23:41;;;;;;;29.00;4.97;;;11.00;99.20;;;;;;4992541;28;20493;-72
2023/03/26 05:26:09;;;;;;;38.78;7.43;;;11.00;99.20;;;;;;5005983;28;20026;-71
2023/03/26 05:28:36;;;;;;;31.40;5.88;;;11.00;99.10;;;;;;4997670;28;20022;-72
2023/03/26 05:31:02;;;;;;;33.85;6.25;;;11.00;99.10;;;;;;4999836;28;20026;-72
2023/03/26 05:33:30;;;;;;;30.80;6.55;;;11.00;99.10;;;;;;5006351;28;20030;-71
2023/03/26 05:36:05;;;;;;;31.58;5.97;;;11.00;99.00;;;;;;4993857;28;20030;-72
2023/03/26 05:38:32;;;;;;;39.35;8.05;;;11.00;99.10;;;;;;5002512;28;20050;-72
2023/03/26 05:40:59;;;;;;;30.30;6.95;;;11.00;99.10;;;;;;4993328;28;20021;-72
2023/03/26 05:43:25;;;;;;;29.80;7.38;;;11.10;99.20;;;;;;4996740;28;20117;-72
2023/03/26 05:45:51;;;;;;;35.15;8.45;;;11.10;99.20;;;;;;5010407;28;20018;-73
2023/03/26 05:48:17;;;;;;;27.52;6.38;;;11.10;99.20;;;;;;5008257;28;20077;-72
2023/03/26 05:50:43;;;;;;;29.67;8.57;;;11.10;99.20;;;;;;4995707;28;20040;-72
2023/03/26 05:53:08;;;;;;;30.48;7.80;;;11.10;99.20;;;;;;5006641;28;20025;-72
2023/03/26 05:55:34;;;;;;;32.00;6.97;;;11.20;99.30;;;;;;4990435;28;20481;-72
2023/03/26 05:57:59;;;;;;;27.65;7.47;;;11.20;99.30;;;;;;4994843;28;20037;-72
2023/03/26 06:00:26;;;;;;;32.15;6.82;;;11.20;99.30;;;;;;4987050;28;20389;-72
2023/03/26 06:02:53;;;;;;;37.72;7.07;;;11.10;99.20;;;;;;4991326;28;20030;-73
2023/03/26 06:05:19;;;;;;;35.80;6.80;;;11.10;99.20;;;;;;4990363;28;20037;-72
2023/03/26 06:07:45;;;;;;;30.42;6.43;;;11.10;99.20;;;;;;4986881;28;20027;-72
2023/03/26 06:10:12;;;;;;;28.60;7.03;;;11.10;99.30;;;;;;4981477;28;20034;-73
2023/03/26 06:12:38;;;;;;;33.63;7.40;;;;;;;;;;4985641;28;20034;-72
2023/03/26 06:15:04;;;;;;;27.20;7.38;;;11.10;99.20;;;;;;4980783;28;20034;-73
2023/03/26 06:17:30;;;;;;;34.60;7.57;;;11.00;99.50;;;;;;4989509;28;20054;-74
2023/03/26 06:19:57;;;;;;;30.73;7.22;;;11.00;99.50;;;;;;4990104;28;20778;-74
2023/03/26 06:22:23;;;;;;;23.60;6.18;;;11.00;99.50;;;;;;4987306;28;20397;-72
2023/03/26 06:24:49;;;;;;;31.45;5.70;;;11.00;99.50;;;;;;4981313;28;20030;-74
2023/03/26 06:27:14;;;;;;;29.85;7.57;;;10.90;99.50;;;;;;4990102;28;20031;-74
2023/03/26 06:29:40;;;;;;;19.63;6.63;;;11.00;99.60;;;;;;4984838;28;20022;-75
2023/03/26 06:32:06;;;;;;;27.48;6.43;;;11.00;99.60;;;;;;4988868;28;20022;-74
2023/03/26 06:34:31;;;;;;;32.83;7.40;;;11.00;99.60;;;;;;4990135;28;20034;-74
2023/03/26 06:36:57;;;;;;;31.92;7.05;;;11.00;99.60;;;;;;4990146;28;20030;-74
2023/03/26 06:39:22;;;;;;;24.40;6.00;;;11.00;99.60;;;;;;4989516;28;20054;-74
2023/03/26 06:41:48;;;;;;;26.23;4.95;;;11.00;99.60;;;;;;4986972;28;20543;-74
2023/03/26 06:44:14;;;;;;;28.52;5.82;;;11.00;99.60;;;;;;4985042;28;20034;-75
2023/03/26 06:46:39;;;;;;;25.58;6.25;;;11.00;99.50;;;;;;4987921;28;20458;-73
2023/03/26 06:49:05;;;;;;;21.58;5.82;;;11.00;99.50;;;;;;4986828;28;20041;-75
2023/03/26 06:51:31;;;;;;;20.70;5.47;;;11.00;99.60;;;;;;4987887;28;20061;-74
2023/03/26 06:53:57;;;;;;;23.10;5.55;;;10.90;99.60;;;;;;4988738;28;20049;-74
2023/03/26 06:56:22;;;;;;;17.92;5.60;;;10.90;99.60;;;;;;4987906;28;20064;-74
2023/03/26 06:58:48;;;;;;;24.05;6.45;;;10.90;99.60;;;;;;4988417;28;20022;-74
2023/03/26 07:01:14;;;;;;;26.63;8.20;;;10.80;99.70;;;;;;4988085;28;20033;-74
2023/03/26 07:03:40;;;;;;;25.23;7.75;;;10.90;99.80;;;;;;4988627;28;20026;-75
2023/03/26 07:06:06;;;;;;;30.00;7.25;;;10.90;99.80;;;;;;4985560;28;20022;-75
2023/03/26 07:08:31;;;;;;;31.48;6.97;;;10.90;99.80;;;;;;4987527;28;20087;-74
2023/03/26 07:10:57;;;;;;;33.17;7.90;;;11.00;99.90;;;;;;4989955;28;20104;-76
2023/03/26 07:13:22;;;;;;;25.20;8.40;;;11.00;99.80;;;;;;4990550;28;20033;-74
2023/03/26 07:15:48;;;;;;;25.85;7.57;;;11.00;99.80;;;;;;4989835;28;20065;-75
2023/03/26 07:18:13;;;;;;;25.10;7.25;;;11.10;99.80;;;;;;4989158;28;20046;-76
2023/03/26 07:20:41;;;;;;;20.75;6.30;;;11.10;99.90;;;;;;4988842;28;20519;-76
2023/03/26 07:23:09;;;;;;;26.02;6.68;;;11.00;99.80;;;;;;4989473;28;20022;-72
2023/03/26 07:25:34;;;;;;;19.95;5.60;;;11.00;99.80;;;;;;5003957;28;20018;-74
2023/03/26 07:28:35;;;;;;;29.92;7.40;;;11.10;99.80;;;;;;4990003;28;20499;-75
2023/03/26 07:31:12;;;;;;;24.17;7.50;;;11.10;99.80;;;;;;4987983;28;20018;-74
2023/03/26 07:34:02;;;;;;;19.35;6.07;;;11.10;99.70;;;;;;4991874;28;20097;-74
2023/03/26 07:36:32;;;;;;;;;;;11.10;99.70;;;;;;4985034;28;20030;-75
2023/03/26 07:39:13;;;;;;;34.50;7.05;;;11.00;99.60;;;;;;4988783;28;19906;-75
2023/03/26 07:41:57;;;;;;;30.38;6.38;;;11.00;99.60;;;;;;4986827;28;20026;-74
2023/03/26 07:44:28;;;;;;;25.75;6.63;;;10.90;99.70;;;;;;4984514;28;20037;-73
2023/03/26 07:46:54;;;;;;;30.95;7.45;;;10.90;99.70;;;;;;4990244;28;20515;-74
2023/03/26 07:49:20;;;;;;;34.63;8.73;;;10.90;99.80;;;;;;4992337;28;20026;-74
2023/03/26 07:51:47;;;;;;;31.48;8.57;;;10.80;99.70;;;;;;4992887;28;20741;-74
2023/03/26 07:54:13;;;;;;;33.33;9.30;;;10.70;99.70;;;;;;4990852;28;20385;-75
2023/03/26 07:56:50;;;;;;;25.20;7.28;;;10.70;99.80;;;;;;4999752;28;20034;-73
2023/03/26 07:59:28;;;;;;;23.15;6.30;;;10.70;99.90;;;;;;4999086;28;20030;-73
2023/03/26 08:02:17;;;;;;;17.40;5.07;;;10.70;99.90;;;;;;4990207;28;20053;-74
2023/03/26 08:04:55;;;;;;;28.33;6.82;;;10.70;99.90;;;;;;4994769;28;20035;-73
2023/03/26 08:07:36;;;;;;;24.35;6.72;;;10.70;99.90;;;;;;5004354;28;20022;-75
2023/03/26 08:10:17;;;;;;;24.63;5.80;;;10.70;99.90;;;;;;4983709;28;20109;-75
2023/03/26 08:13:20;;;;;;;25.10;7.03;;;10.80;99.90;;;;;;4995116;28;20453;-75
2023/03/26 08:16:07;;;;;;;26.83;6.78;;;10.70;99.90;;;;;;4994565;28;20034;-74
2023/03/26 08:18:58;;;;;;;23.75;5.68;;;10.70;99.90;;;;;;4995946;28;20038;-75
2023/03/26 08:21:30;;;;;;;19.92;5.63;;;10.80;99.90;;;;;;4993965;28;20034;-74
2023/03/26 08:24:02;;;;;;;20.77;4.95;;;10.80;99.90;;;;;;5007632;28;20049;-74
2023/03/26 08:26:56;;;;;;;24.00;7.40;;;10.90;99.90;;;;;;4994719;28;20027;-74
2023/03/26 08:29:27;;;;;;;32.50;8.50;;;11.00;99.90;;;;;;5004743;28;20029;-74
2023/03/26 08:31:56;;;;;;;24.27;5.70;;;11.00;99.90;;;;;;4999978;28;20026;-74
2023/03/26 08:34:22;;;;;;;23.63;6.55;;;11.00;99.90;;;;;;4995986;28;20061;-75
2023/03/26 08:36:47;;;;;;;27.40;4.90;;;11.00;99.90;;;;;;5007199;28;20484;-74
2023/03/26 08:39:13;;;;;;;28.88;5.68;;;11.00;99.90;;;;;;4996097;28;20073;-75
2023/03/26 08:42:13;;;;;;;27.85;6.47;;;10.90;99.90;;;;;;4999748;28;20037;-74
2023/03/26 08:44:57;;;;;;;21.13;6.13;;;10.90;99.90;;;;;;4996438;28;20088;-74
2023/03/26 08:48:09;;;;;;;17.30;4.63;;;10.80;99.90;;;;;;4993883;28;20058;-75
2023/03/26 08:51:09;;;;;;;20.65;5.60;;;10.70;99.90;;;;;;4983977;28;20438;-75
2023/03/26 08:53:57;;;;;;;28.20;6.60;;;10.70;99.90;;;;;;4993829;28;20568;-75
2023/03/26 08:57:16;;;;;;;26.58;5.10;;;10.70;99.90;;;;;;4998522;28;20393;-74
2023/03/26 09:00:19;;;;;;;20.05;5.05;;;10.70;99.90;;;;;;4962893;28;20432;-75
2023/03/26 09:03:10;;;;;;;19.23;5.07;;;10.70;99.90;;;;;;4996990;28;20014;-73
2023/03/26 09:05:55;;;;;;;20.73;6.65;;;10.60;99.90;;;;;;4987230;28;20409;-73
2023/03/26 09:08:45;;;;;;;19.20;6.22;;;10.60;99.90;;;;;;5010420;28;20021;-74
2023/03/26 09:11:35;;;;;;;26.60;8.55;;;10.60;99.90;;;;;;4992093;28;20035;-74
2023/03/26 09:14:39;;;;;;;22.48;7.65;;;10.50;99.90;;;;;;4992306;28;20036;-74
2023/03/26 09:17:11;;;;;;;13.18;5.72;;;10.50;99.90;;;;;;4988862;28;20523;-73
2023/03/26 09:20:07;;;;;;;21.88;6.32;;;10.50;99.90;;;;;;4995513;28;20046;-74
2023/03/26 09:22:54;;;;;;;22.73;6.53;;;10.50;99.90;;;;;;4995921;28;20511;-74
2023/03/26 09:25:48;;;;;;;19.52;6.43;;;10.50;99.90;;;;;;4989203;28;20034;-74
2023/03/26 09:28:22;;;;;;;20.90;7.15;;;10.60;99.90;;;;;;5007400;28;20062;-73
2023/03/26 09:31:01;;;;;;;27.17;6.45;;;10.70;99.90;;;;;;4997966;28;20503;-74
2023/03/26 09:33:52;;;;;;;17.05;5.95;;;10.80;99.90;;;;;;4993174;28;20069;-74
2023/03/26 09:36:26;;;;;;;20.17;5.75;;;10.80;99.90;;;;;;4995981;28;20041;-74
2023/03/26 09:38:52;;;;;;;23.48;5.85;;;10.80;99.90;;;;;;4992582;28;20023;-74
2023/03/26 09:41:40;;;;;;;15.63;6.07;;;10.80;99.90;;;;;;4993749;28;20034;-75
2023/03/26 09:44:17;;;;;;;19.27;6.05;;;10.80;99.90;;;;;;4989057;28;20026;-75
2023/03/26 09:47:12;;;;;;;21.95;6.80;;;10.90;99.90;;;;;;4996814;28;20780;-75
2023/03/26 09:49:47;;;;;;;18.40;6.45;;;11.00;99.90;;;;;;4991825;28;20038;-75
2023/03/26 09:52:24;;;;;;;21.33;6.65;;;11.00;99.90;;;;;;4983918;28;20034;-74
2023/03/26 09:55:23;;;;;;;20.05;7.05;;;11.00;99.90;;;;;;4991346;28;20037;-75
2023/03/26 09:58:20;;;;;;;23.17;6.68;;;11.00;99.90;;;;;;4994155;28;20120;-74
2023/03/26 10:01:07;;;;;;;15.90;5.90;;;11.00;99.90;;;;;;4996839;28;20026;-74
2023/03/26 10:03:57;;;;;;;18.45;5.55;;;11.10;99.90;;;;;;4991885;28;20087;-75
2023/03/26 10:06:35;;;;;;;13.87;6.37;;;11.10;99.90;;;;;;4992559;28;20105;-74
2023/03/26 10:09:05;;;;;;;13.80;4.78;;;11.10;99.90;;;;;;4988175;28;20313;-74
2023/03/26 10:11:49;;;;;;;17.63;5.40;;;11.10;99.90;;;;;;4999244;28;20026;-74
2023/03/26 10:14:15;;;;;;;15.45;5.15;;;11.20;99.90;;;;;;4993457;28;20187;-75
2023/03/26 10:17:09;;;;;;;18.45;5.05;;;11.30;99.90;;;;;;4994108;28;20780;-73
2023/03/26 10:19:42;;;;;;;14.45;5.80;;;11.30;99.90;;;;;;4988917;28;20022;-75
2023/03/26 10:22:18;;;;;;;14.98;4.90;;;11.40;99.90;;;;;;4996392;28;20105;-73
2023/03/26 10:25:21;;;;;;;20.40;5.65;;;11.40;99.90;;;;;;4987271;28;20022;-74
2023/03/26 10:28:06;;;;;;;12.32;4.93;;;11.40;99.90;;;;;;4994872;28;20444;-74
2023/03/26 10:30:57;;;;;;;13.40;5.65;;;11.40;99.90;;;;;;4993486;28;20109;-74
2023/03/26 10:33:51;;;;;;;13.32;4.97;;;11.50;99.90;;;;;;5000313;28;20496;-74
2023/03/26 10:36:31;;;;;;;11.60;4.30;;;11.60;99.90;;;;;;4996714;28;20625;-75
2023/03/26 10:39:27;;;;;;;13.85;5.25;;;11.50;99.90;;;;;;4990700;28;20030;-75
2023/03/26 10:41:53;;;;;;;10.65;4.53;;;11.50;99.90;;;;;;4991987;28;20764;-74
2023/03/26 10:44:24;;;;;;;14.35;4.13;;;11.50;99.90;;;;;;4995021;28;20027;-75
2023/03/26 10:47:11;;;;;;;14.57;4.63;;;11.60;99.90;;;;;;4997430;28;20097;-76
2023/03/26 10:49:53;;;;;;;10.02;2.75;;;11.70;99.90;;;;;;4994032;28;20025;-75
2023/03/26 10:52:23;;;;;;;10.63;3.35;;;11.80;99.90;;;;;;4997120;28;20114;-75
2023/03/26 10:54:55;;;;;;;9.40;2.83;;;11.80;99.90;;;;;;4995108;28;20385;-75
2023/03/26 10:57:38;;;;;;;7.95;2.78;;;11.80;99.80;;;;;;5002677;28;20083;-75
2023/03/26 11:00:24;;;;;;;13.43;3.03;;;11.80;99.60;;;;;;4996727;28;20516;-75
2023/03/26 11:03:12;;;;;;;12.35;3.42;;;11.90;99.40;;;;;;4993389;28;20018;-75
2023/03/26 11:05:43;;;;;;;9.43;2.97;;;11.80;99.40;;;;;;4990349;28;20022;-75
2023/03/26 11:08:22;;;;;;;8.52;2.33;;;11.80;99.40;;;;;;4993734;28;20030;-75
2023/03/26 11:10:55;;;;;;;10.18;2.80;;;11.80;99.20;;;;;;4992588;28;20065;-75
2023/03/26 11:13:35;;;;;;;7.20;2.20;;;11.80;99.00;;;;;;5003884;28;20056;-75
2023/03/26 11:16:21;;;;;;;9.77;2.90;;;11.70;99.10;;;;;;4988202;28;20038;-76
2023/03/26 11:18:55;;;;;;;9.00;3.75;;;11.70;99.10;;;;;;5001040;28;20023;-75
2023/03/26 11:21:46;;;;;;;10.60;3.28;;;11.80;98.90;;;;;;4994098;28;20076;-76
2023/03/26 11:24:30;;;;;;;7.97;2.17;;;11.70;99.00;;;;;;4986254;28;20030;-75
2023/03/26 11:27:06;;;;;;;12.18;5.43;;;11.80;98.90;;;;;;4988589;28;20096;-75
2023/03/26 11:29:59;;;;;;;9.65;3.25;;;11.70;98.70;;;;;;4993016;28;20022;-76
2023/03/26 11:32:33;;;;;;;11.10;5.18;;;11.70;98.90;;;;;;4996618;28;20054;-73
2023/03/26 11:35:07;;;;;;;9.85;4.40;;;11.70;98.90;;;;;;4997489;28;20125;-74
2023/03/26 11:37:38;;;;;;;9.07;3.00;;;11.70;99.00;;;;;;4994527;28;20026;-74
2023/03/26 11:40:14;;;;;;;8.93;3.47;;;11.70;98.90;;;;;;5005077;28;20366;-73
2023/03/26 11:42:41;;;;;;;12.35;4.85;;;11.60;99.00;;;;;;4990192;28;20022;-74
2023/03/26 11:45:20;;;;;;;11.35;6.15;;;11.60;99.30;;;;;;4991738;28;20429;-74
2023/03/26 11:47:57;;;;;;;10.45;5.43;;;11.50;99.20;;;;;;4987013;28;20058;-73
2023/03/26 11:50:27;;;;;;;9.65;3.75;;;11.50;99.00;;;;;;4990604;28;20034;-73
2023/03/26 11:52:57;;;;;;;8.93;3.58;;;11.50;99.20;;;;;;4990706;28;20484;-74
2023/03/26 11:55:26;;;;;;;9.60;3.88;;;11.40;99.20;;;;;;4985761;28;20528;-74
2023/03/26 11:57:55;;;;;;;8.68;3.08;;;11.30;99.30;;;;;;4987539;28;20485;-74
2023/03/26 12:00:26;;;;;;;12.67;4.77;;;11.20;99.40;;;;;;4988684;28;20018;-74
2023/03/26 12:02:56;;;;;;;14.43;5.30;;;11.30;99.60;;;;;;4988599;28;20034;-74
2023/03/26 12:05:25;;;;;;;9.88;3.40;;;11.20;99.60;;;;;;4988230;28;20096;-73
2023/03/26 12:08:02;;;;;;;14.27;5.82;;;11.20;99.60;;;;;;4987432;28;20038;-74
2023/03/26 12:10:38;;;;;;;17.48;6.82;;;11.20;99.70;;;;;;4986380;28;20030;-74
2023/03/26 12:13:40;;;;;;;11.80;4.45;;;11.20;99.70;;;;;;4987247;28;20022;-74
2023/03/26 12:16:19;;;;;;;14.68;3.33;;;11.20;99.70;;;;;;5002218;28;20030;-74
2023/03/26 12:18:56;;;;;;;11.98;4.00;;;11.20;99.70;;;;;;4986808;28;20045;-74
2023/03/26 12:21:22;;;;;;;11.20;3.92;;;11.00;99.70;;;;;;4986877;28;20499;-75
2023/03/26 12:23:55;;;;;;;19.00;6.30;;;11.00;99.90;;;;;;4987022;28;20101;-74
2023/03/26 12:26:54;;;;;;;14.00;5.32;;;10.90;99.90;;;;;;4985464;28;20029;-74
2023/03/26 12:29:22;;;;;;;13.10;4.25;;;10.90;99.90;;;;;;4987277;28;20029;-74
2023/03/26 12:31:56;;;;;;;10.25;4.47;;;10.90;99.90;;;;;;4976749;28;20035;-75
2023/03/26 12:34:33;;;;;;;10.77;3.42;;;10.90;99.90;;;;;;4986902;28;20454;-73
2023/03/26 12:37:00;;;;;;;9.20;3.22;;;11.00;99.90;;;;;;4986874;28;20076;-73
2023/03/26 12:39:33;;;;;;;18.52;5.57;;;11.20;99.90;;;;;;4985066;28;20030;-75
2023/03/26 12:42:01;;;;;;;13.00;4.45;;;11.20;99.70;;;;;;4988107;28;20046;-75
2023/03/26 12:44:34;;;;;;;10.15;3.22;;;11.30;99.60;;;;;;4985083;28;20516;-74
2023/03/26 12:47:13;;;;;;;11.85;4.10;;;11.40;99.60;;;;;;4989870;28;20521;-73
2023/03/26 12:49:40;;;;;;;6.77;2.30;;;11.40;99.30;;;;;;4989780;28;20097;-74
2023/03/26 12:52:43;;;;;;;9.27;3.00;;;11.40;99.30;;;;;;4989096;28;20019;-74
2023/03/26 12:55:26;;;;;;;9.15;2.60;;;11.40;99.40;;;;;;4989727;28;20575;-75
2023/03/26 12:58:23;;;;;;;12.77;4.25;;;11.40;99.40;;;;;;5006219;28;20528;-75
2023/03/26 13:01:01;;;;;;;10.50;3.75;;;11.30;99.40;;;;;;4991709;28;20882;-75
2023/03/26 13:03:33;;;;;;;9.80;2.92;;;11.40;99.40;;;;;;4994990;28;20030;-75
2023/03/26 13:06:28;;;;;;;15.00;3.67;;;11.40;99.30;;;;;;4998140;28;20041;-74
2023/03/26 13:09:03;;;;;;;9.50;3.55;;;11.40;99.20;;;;;;4987737;28;20026;-74
2023/03/26 13:11:50;;;;;;;9.63;3.40;;;11.30;99.40;;;;;;4995915;28;20022;-73